createdAt,value
2019-05-30T00:00:05.685Z,12.13
2019-05-30T00:04:57.954Z,8.95
2019-05-30T00:10:02.899Z,6.85
2019-05-30T00:15:07.868Z,6.20
2019-05-30T00:20:13.700Z,5.97
2019-05-30T00:25:17.512Z,5.55
2019-05-30T00:30:24.678Z,6.22
2019-05-30T00:35:26.702Z,5.47
2019-05-30T00:40:31.034Z,5.50
2019-05-30T00:45:34.982Z,4.92
2019-05-30T00:50:45.777Z,4.87
2019-05-30T00:55:49.626Z,5.08
2019-05-30T01:00:53.333Z,4.75
2019-05-30T01:05:57.250Z,4.55
2019-05-30T01:11:01.113Z,4.28
2019-05-30T01:16:05.518Z,4.65
2019-05-30T01:21:09.627Z,3.90
2019-05-30T01:26:13.503Z,3.90
2019-05-30T01:31:17.338Z,4.30
2019-05-30T01:36:21.121Z,3.67
2019-05-30T01:41:28.091Z,3.80
2019-05-30T01:46:31.925Z,4.17
2019-05-30T01:51:35.706Z,4.25
2019-05-30T01:56:39.509Z,4.17
2019-05-30T02:01:46.554Z,4.50
2019-05-30T02:06:50.285Z,4.80
2019-05-30T02:11:54.106Z,4.53
2019-05-30T02:16:59.501Z,4.58
2019-05-30T02:22:03.775Z,5.03
2019-05-30T02:27:08.347Z,4.75
2019-05-30T02:32:12.126Z,4.90
2019-05-30T02:37:15.808Z,4.72
2019-05-30T02:42:21.060Z,4.87
2019-05-30T02:47:24.857Z,5.33
2019-05-30T02:52:28.554Z,6.53
2019-05-30T02:57:32.395Z,6.25
2019-05-30T03:02:37.427Z,5.17
2019-05-30T03:07:41.303Z,4.40
2019-05-30T03:12:45.344Z,3.83
2019-05-30T03:17:49.287Z,5.33
2019-05-30T03:22:53.160Z,5.35
2019-05-30T03:27:57.054Z,6.17
2019-05-30T03:33:12.135Z,7.05
2019-05-30T03:38:08.652Z,6.92
2019-05-30T03:43:13.798Z,5.58
2019-05-30T03:48:20.380Z,5.70
2019-05-30T03:53:24.545Z,4.95
2019-05-30T03:58:33.962Z,3.42
2019-05-30T04:03:43.355Z,3.40
2019-05-30T04:08:50.128Z,4.45
2019-05-30T04:14:02.775Z,3.90
2019-05-30T04:19:07.978Z,4.10
2019-05-30T04:24:13.633Z,4.20
2019-05-30T04:29:18.976Z,4.42
2019-05-30T04:34:25.659Z,4.40
2019-05-30T04:39:29.487Z,4.08
2019-05-30T04:44:33.299Z,4.80
2019-05-30T04:49:37.173Z,4.12
2019-05-30T04:54:40.911Z,3.83
2019-05-30T04:59:44.735Z,2.70
2019-05-30T05:04:48.561Z,4.65
2019-05-30T05:09:52.196Z,3.47
2019-05-30T05:14:56.092Z,3.85
2019-05-30T05:19:59.879Z,4.05
2019-05-30T05:25:04.841Z,3.80
2019-05-30T05:30:09.355Z,4.33
2019-05-30T05:35:14.722Z,3.90
2019-05-30T05:40:18.705Z,2.92
2019-05-30T05:45:22.809Z,3.30
2019-05-30T05:50:26.847Z,3.47
2019-05-30T05:55:30.650Z,5.00
2019-05-30T06:00:34.719Z,3.45
2019-05-30T06:05:52.116Z,3.15
2019-05-30T06:10:44.282Z,3.05
2019-05-30T06:15:47.937Z,4.05
2019-05-30T06:20:51.799Z,3.85
2019-05-30T06:25:55.416Z,3.15
2019-05-30T06:30:59.373Z,2.30
2019-05-30T06:36:03.275Z,2.65
2019-05-30T06:41:08.568Z,3.00
2019-05-30T06:46:12.291Z,3.20
2019-05-30T06:51:16.108Z,2.08
2019-05-30T06:56:21.126Z,2.87
2019-05-30T07:01:25.825Z,2.80
2019-05-30T07:06:30.200Z,2.87
2019-05-30T07:11:35.079Z,2.45
2019-05-30T07:16:38.771Z,2.98
2019-05-30T07:21:42.590Z,3.55
2019-05-30T07:26:46.303Z,4.25
2019-05-30T07:31:50.153Z,7.12
2019-05-30T07:36:53.830Z,3.70
2019-05-30T07:42:06.133Z,8.10
2019-05-30T07:47:03.037Z,3.60
2019-05-30T07:52:06.890Z,3.10
2019-05-30T07:57:12.038Z,3.92
2019-05-30T08:02:15.828Z,3.35
2019-05-30T08:07:19.478Z,1.70
2019-05-30T08:12:23.352Z,2.90
2019-05-30T08:17:27.338Z,2.20
2019-05-30T08:22:31.902Z,2.47
2019-05-30T08:27:36.457Z,2.00
2019-05-30T08:32:40.414Z,1.82
2019-05-30T08:37:44.260Z,2.00
2019-05-30T08:42:47.946Z,1.45
2019-05-30T08:47:51.667Z,1.80
2019-05-30T08:52:55.502Z,1.62
2019-05-30T08:57:59.294Z,2.15
2019-05-30T09:03:03.167Z,1.80
2019-05-30T09:08:06.987Z,1.92
2019-05-30T09:13:10.799Z,1.75
2019-05-30T09:18:14.560Z,2.05
2019-05-30T09:23:18.286Z,1.80
2019-05-30T09:28:22.082Z,1.47
2019-05-30T09:33:25.944Z,2.10
2019-05-30T09:38:29.711Z,1.67
2019-05-30T09:43:33.379Z,1.65
2019-05-30T09:48:36.986Z,1.57
2019-05-30T09:53:41.262Z,1.30
2019-05-30T09:58:47.648Z,1.52
2019-05-30T10:03:52.340Z,1.92
2019-05-30T10:08:56.221Z,2.25
2019-05-30T10:13:59.942Z,2.20
2019-05-30T10:19:03.753Z,2.52
2019-05-30T10:24:07.655Z,3.05
2019-05-30T10:29:11.346Z,3.60
2019-05-30T10:34:15.108Z,3.67
2019-05-30T10:39:18.916Z,2.90
2019-05-30T10:44:22.629Z,3.45
2019-05-30T10:49:34.769Z,2.98
2019-05-30T10:54:31.870Z,2.08
2019-05-30T10:59:35.625Z,2.60
2019-05-30T11:04:39.533Z,3.08
2019-05-30T11:09:52.830Z,2.77
2019-05-30T11:14:57.861Z,12.68
2019-05-30T11:20:01.658Z,6.80
2019-05-30T11:25:05.894Z,2.45
2019-05-30T11:30:10.461Z,2.77
2019-05-30T11:35:14.159Z,3.77
2019-05-30T11:40:18.068Z,3.47
2019-05-30T11:45:23.044Z,2.65
2019-05-30T11:50:27.827Z,2.25
2019-05-30T11:55:31.988Z,2.20
2019-05-30T12:00:35.812Z,3.37
2019-05-30T12:05:39.694Z,2.35
2019-05-30T12:10:43.412Z,2.22
2019-05-30T12:15:47.278Z,2.40
2019-05-30T12:20:51.674Z,2.80
2019-05-30T12:25:55.960Z,2.37
2019-05-30T12:31:04.595Z,2.47
2019-05-30T12:36:06.066Z,2.52
2019-05-30T12:41:09.700Z,3.17
2019-05-30T12:46:13.478Z,4.12
2019-05-30T12:51:17.361Z,4.08
2019-05-30T12:56:21.114Z,2.72
2019-05-30T13:01:27.407Z,3.50
2019-05-30T13:06:30.348Z,3.70
2019-05-30T13:11:34.065Z,4.30
2019-05-30T13:16:37.875Z,2.87
2019-05-30T13:21:41.705Z,3.22
2019-05-30T13:26:45.364Z,2.87
2019-05-30T13:31:49.213Z,2.65
2019-05-30T13:36:52.861Z,3.20
2019-05-30T13:41:57.484Z,2.70
2019-05-30T13:47:02.431Z,3.20
2019-05-30T13:52:07.252Z,2.72
2019-05-30T13:57:11.413Z,2.90
2019-05-30T14:02:15.202Z,2.27
2019-05-30T14:07:19.060Z,2.72
2019-05-30T14:12:22.818Z,3.33
2019-05-30T14:17:26.582Z,2.52
2019-05-30T14:22:30.795Z,2.65
2019-05-30T14:27:34.631Z,2.83
2019-05-30T14:32:38.533Z,3.87
2019-05-30T14:37:42.378Z,3.60
2019-05-30T14:42:46.227Z,2.87
2019-05-30T14:47:49.989Z,2.65
2019-05-30T14:53:00.080Z,2.95
2019-05-30T14:58:04.924Z,2.95
2019-05-30T15:03:12.691Z,2.62
2019-05-30T15:08:14.202Z,3.35
2019-05-30T15:13:17.947Z,3.50
2019-05-30T15:18:21.817Z,3.37
2019-05-30T15:23:25.595Z,3.22
2019-05-30T15:28:29.303Z,2.87
2019-05-30T15:33:33.001Z,4.03
2019-05-30T15:38:36.752Z,4.22
2019-05-30T15:43:40.493Z,4.45
2019-05-30T15:48:44.319Z,6.25
2019-05-30T15:53:48.012Z,7.97
2019-05-30T15:58:51.711Z,9.23
2019-05-30T16:03:55.550Z,9.33
2019-05-30T16:08:59.434Z,9.90
2019-05-30T16:14:03.359Z,10.70
2019-05-30T16:19:17.249Z,10.08
2019-05-30T16:24:12.728Z,11.12
2019-05-30T16:29:17.671Z,11.55
2019-05-30T16:34:22.222Z,13.60
2019-05-30T16:39:26.556Z,14.95
2019-05-30T16:44:30.631Z,13.58
2019-05-30T16:49:34.417Z,14.00
2019-05-30T16:54:38.120Z,12.18
2019-05-30T16:59:41.995Z,10.82
2019-05-30T17:04:45.877Z,9.83
2019-05-30T17:09:49.747Z,11.18
2019-05-30T17:14:53.668Z,11.40
2019-05-30T17:19:57.265Z,12.00
2019-05-30T17:25:01.123Z,12.95
2019-05-30T17:30:12.797Z,12.00
2019-05-30T17:35:17.857Z,11.80
2019-05-30T17:40:35.564Z,12.60
2019-05-30T17:45:27.733Z,13.60
2019-05-30T17:50:31.616Z,12.05
2019-05-30T17:55:35.361Z,13.75
2019-05-30T18:00:39.614Z,13.05
2019-05-30T18:05:43.454Z,13.58
2019-05-30T18:10:53.628Z,14.68
2019-05-30T18:15:52.858Z,13.43
2019-05-30T18:20:56.666Z,14.93
2019-05-30T18:26:00.396Z,15.05
2019-05-30T18:31:04.238Z,15.32
2019-05-30T18:36:07.942Z,15.23
2019-05-30T18:41:15.833Z,15.80
2019-05-30T18:46:17.432Z,15.15
2019-05-30T18:51:21.244Z,13.75
2019-05-30T18:56:25.139Z,13.60
2019-05-30T19:01:29.637Z,13.45
2019-05-30T19:06:33.830Z,13.62
2019-05-30T19:11:38.315Z,13.40
2019-05-30T19:16:42.176Z,13.25
2019-05-30T19:21:45.968Z,14.23
2019-05-30T19:26:49.705Z,13.08
2019-05-30T19:31:53.529Z,12.20
2019-05-30T19:36:57.347Z,11.35
2019-05-30T19:42:01.239Z,10.28
2019-05-30T19:47:05.125Z,9.78
2019-05-30T19:52:08.909Z,11.80
2019-05-30T19:57:12.802Z,9.38
2019-05-30T20:02:16.459Z,9.05
2019-05-30T20:07:20.139Z,13.50
2019-05-30T20:12:23.832Z,11.57
2019-05-30T20:17:31.500Z,10.40
2019-05-30T20:22:35.967Z,10.53
2019-05-30T20:27:40.904Z,9.83
2019-05-30T20:32:45.029Z,11.90
2019-05-30T20:37:49.842Z,11.00
2019-05-30T20:42:53.737Z,10.55
2019-05-30T20:47:59.157Z,10.72
2019-05-30T20:53:02.991Z,12.40
2019-05-30T20:58:06.880Z,12.78
2019-05-30T21:03:10.674Z,13.30
2019-05-30T21:08:15.700Z,14.70
2019-05-30T21:13:19.519Z,15.50
2019-05-30T21:18:26.320Z,13.05
2019-05-30T21:23:30.130Z,12.88
2019-05-30T21:28:33.846Z,11.73
2019-05-30T21:33:38.028Z,11.80
2019-05-30T21:38:43.949Z,13.15
2019-05-30T21:43:48.923Z,11.60
2019-05-30T21:48:53.027Z,9.63
2019-05-30T21:53:56.890Z,9.58
2019-05-30T21:59:00.667Z,8.85
2019-05-30T22:04:05.579Z,10.45
2019-05-30T22:09:09.395Z,11.68
2019-05-30T22:14:14.689Z,12.95
2019-05-30T22:19:18.463Z,14.75
2019-05-30T22:24:22.314Z,15.58
2019-05-30T22:29:26.178Z,16.30
2019-05-30T22:34:29.985Z,17.10
2019-05-30T22:39:33.685Z,15.23
2019-05-30T22:44:37.414Z,13.90
2019-05-30T22:49:44.536Z,14.23
2019-05-30T22:54:49.083Z,13.98
2019-05-30T22:59:53.641Z,14.33
2019-05-30T23:04:58.905Z,13.53
2019-05-30T23:10:02.838Z,11.10
2019-05-30T23:15:09.583Z,9.28
2019-05-30T23:20:16.020Z,9.55
2019-05-30T23:25:19.926Z,10.18
2019-05-30T23:30:23.867Z,11.43
2019-05-30T23:35:27.749Z,10.70
2019-05-30T23:40:31.658Z,10.60
2019-05-30T23:45:35.351Z,10.30
2019-05-30T23:50:39.275Z,10.72
2019-05-30T23:55:43.107Z,9.45
